createdAt,value
2018-01-16T00:02:16.715Z,1.12
2018-01-16T00:04:44.591Z,0.93
2018-01-16T00:07:12.253Z,0.75
2018-01-16T00:09:40.527Z,0.98
2018-01-16T00:12:08.097Z,0.70
2018-01-16T00:14:35.728Z,0.75
2018-01-16T00:17:03.698Z,0.80
2018-01-16T00:19:31.468Z,0.80
2018-01-16T00:21:59.241Z,0.80
2018-01-16T00:24:27.518Z,0.73
2018-01-16T00:26:55.286Z,0.60
2018-01-16T00:29:23.153Z,0.80
2018-01-16T00:31:51.431Z,0.68
2018-01-16T00:34:19.801Z,0.40
2018-01-16T00:36:47.449Z,0.57
2018-01-16T00:39:15.313Z,0.40
2018-01-16T00:41:43.091Z,0.50
2018-01-16T00:44:10.806Z,0.40
2018-01-16T00:46:38.783Z,0.40
2018-01-16T00:49:06.594Z,0.30
2018-01-16T00:51:34.358Z,0.60
2018-01-16T00:54:02.164Z,0.70
2018-01-16T00:56:29.998Z,0.40
2018-01-16T00:58:57.647Z,0.40
2018-01-16T01:01:25.521Z,0.68
2018-01-16T01:03:53.340Z,0.40
2018-01-16T01:06:21.046Z,0.40
2018-01-16T01:08:49.216Z,0.40
2018-01-16T01:11:16.982Z,0.40
2018-01-16T01:13:44.749Z,0.50
2018-01-16T01:16:12.607Z,0.40
2018-01-16T01:18:40.190Z,0.62
2018-01-16T01:21:08.032Z,0.47
2018-01-16T01:23:36.100Z,0.55
2018-01-16T01:26:03.763Z,0.50
2018-01-16T01:28:31.526Z,0.60
2018-01-16T01:30:59.500Z,0.80
2018-01-16T01:33:27.269Z,0.45
2018-01-16T01:35:54.908Z,0.40
2018-01-16T01:38:22.632Z,0.50
2018-01-16T01:40:50.352Z,0.40
2018-01-16T01:43:18.020Z,0.40
2018-01-16T01:45:45.776Z,0.50
2018-01-16T01:48:13.324Z,0.40
2018-01-16T01:50:41.507Z,0.50
2018-01-16T01:53:09.138Z,0.95
2018-01-16T01:55:36.824Z,0.50
2018-01-16T01:58:04.494Z,0.40
2018-01-16T02:00:32.532Z,0.30
2018-01-16T02:03:00.537Z,0.30
2018-01-16T02:05:28.179Z,0.50
2018-01-16T02:07:56.159Z,0.40
2018-01-16T02:10:23.890Z,0.55
2018-01-16T02:12:51.596Z,0.50
2018-01-16T02:15:19.778Z,0.47
2018-01-16T02:17:47.427Z,0.45
2018-01-16T02:20:15.193Z,0.37
2018-01-16T02:22:43.263Z,0.40
2018-01-16T02:25:10.920Z,0.40
2018-01-16T02:27:38.793Z,0.40
2018-01-16T02:30:06.877Z,0.40
2018-01-16T02:32:34.722Z,0.40
2018-01-16T02:35:02.389Z,0.40
2018-01-16T02:37:30.345Z,0.37
2018-01-16T02:39:58.003Z,0.40
2018-01-16T02:42:25.786Z,0.35
2018-01-16T02:44:53.851Z,0.60
2018-01-16T02:47:21.724Z,0.45
2018-01-16T02:49:49.286Z,0.40
2018-01-16T02:52:17.249Z,0.30
2018-01-16T02:54:44.787Z,0.40
2018-01-16T02:57:12.778Z,0.30
2018-01-16T02:59:40.942Z,0.30
2018-01-16T03:02:08.795Z,0.40
2018-01-16T03:04:36.358Z,0.40
2018-01-16T03:07:04.165Z,0.30
2018-01-16T03:09:32.003Z,0.30
2018-01-16T03:11:59.666Z,0.37
2018-01-16T03:14:27.742Z,0.30
2018-01-16T03:16:55.607Z,0.40
2018-01-16T03:19:23.367Z,0.50
2018-01-16T03:21:51.222Z,0.35
2018-01-16T03:24:18.890Z,0.30
2018-01-16T03:26:46.443Z,0.30
2018-01-16T03:29:14.245Z,0.30
2018-01-16T03:31:41.752Z,0.30
2018-01-16T03:34:09.434Z,0.37
2018-01-16T03:36:37.205Z,0.30
2018-01-16T03:39:05.065Z,0.30
2018-01-16T03:41:32.838Z,0.40
2018-01-16T03:44:00.673Z,0.57
2018-01-16T03:46:28.416Z,0.30
2018-01-16T03:48:56.185Z,0.30
2018-01-16T03:51:23.989Z,0.40
2018-01-16T03:53:51.716Z,0.30
2018-01-16T03:56:19.275Z,0.40
2018-01-16T03:58:47.080Z,0.30
2018-01-16T04:01:14.843Z,0.37
2018-01-16T04:03:42.703Z,0.30
2018-01-16T04:06:10.882Z,0.30
2018-01-16T04:08:38.645Z,0.30
2018-01-16T04:11:06.303Z,0.30
2018-01-16T04:13:34.273Z,0.40
2018-01-16T04:16:01.941Z,0.30
2018-01-16T04:18:30.113Z,0.40
2018-01-16T04:20:57.881Z,0.30
2018-01-16T04:23:25.640Z,0.30
2018-01-16T04:25:53.282Z,0.50
2018-01-16T04:28:21.059Z,0.40
2018-01-16T04:30:48.915Z,0.40
2018-01-16T04:33:16.589Z,0.40
2018-01-16T04:35:44.560Z,0.30
2018-01-16T04:38:12.229Z,0.50
2018-01-16T04:40:39.879Z,0.30
2018-01-16T04:43:07.425Z,0.30
2018-01-16T04:45:35.208Z,0.40
2018-01-16T04:48:02.870Z,0.40
2018-01-16T04:50:30.516Z,0.30
2018-01-16T04:52:58.013Z,0.30
2018-01-16T04:55:25.809Z,0.40
2018-01-16T04:57:53.396Z,0.50
2018-01-16T05:00:20.939Z,0.40
2018-01-16T05:02:48.732Z,0.35
2018-01-16T05:05:16.805Z,0.40
2018-01-16T05:07:44.470Z,0.30
2018-01-16T05:10:12.333Z,0.32
2018-01-16T05:12:40.168Z,0.40
2018-01-16T05:15:07.848Z,0.50
2018-01-16T05:17:35.622Z,0.30
2018-01-16T05:20:03.272Z,0.40
2018-01-16T05:22:31.677Z,0.50
2018-01-16T05:24:59.524Z,0.30
2018-01-16T05:27:27.511Z,0.30
2018-01-16T05:32:29.268Z,0.37
2018-01-16T05:34:56.937Z,0.30
2018-01-16T05:37:24.707Z,0.30
2018-01-16T05:39:52.560Z,0.30
2018-01-16T05:42:20.328Z,0.50
2018-01-16T05:44:47.867Z,0.40
2018-01-16T05:47:15.733Z,0.40
2018-01-16T05:49:43.428Z,0.50
2018-01-16T05:52:11.237Z,0.40
2018-01-16T05:54:39.144Z,0.30
2018-01-16T05:57:06.913Z,0.30
2018-01-16T05:59:34.776Z,0.40
2018-01-16T06:02:02.541Z,0.70
2018-01-16T06:04:30.308Z,0.50
2018-01-16T06:06:57.959Z,0.60
2018-01-16T06:09:25.842Z,0.40
2018-01-16T06:11:53.607Z,0.40
2018-01-16T06:14:21.142Z,0.50
2018-01-16T06:16:48.700Z,0.40
2018-01-16T06:19:16.192Z,0.45
2018-01-16T06:21:43.720Z,0.30
2018-01-16T06:24:11.549Z,0.50
2018-01-16T06:26:39.052Z,0.30
2018-01-16T06:29:06.560Z,0.40
2018-01-16T06:31:34.105Z,0.30
2018-01-16T06:34:01.609Z,0.50
2018-01-16T06:36:29.217Z,0.50
2018-01-16T06:38:56.764Z,0.43
2018-01-16T06:41:24.298Z,0.40
2018-01-16T06:43:51.853Z,0.30
2018-01-16T06:46:19.588Z,0.50
2018-01-16T06:48:47.084Z,0.50
2018-01-16T06:51:14.577Z,0.60
2018-01-16T06:53:42.478Z,0.93
2018-01-16T06:56:09.985Z,0.50
2018-01-16T06:58:37.512Z,0.50
2018-01-16T07:01:05.064Z,0.40
2018-01-16T07:03:32.556Z,0.50
2018-01-16T07:06:00.062Z,0.30
2018-01-16T07:08:27.749Z,0.60
2018-01-16T07:10:55.247Z,0.47
2018-01-16T07:13:22.764Z,0.40
2018-01-16T07:15:50.528Z,0.40
2018-01-16T07:18:18.020Z,0.40
2018-01-16T07:20:46.118Z,0.50
2018-01-16T07:23:14.072Z,0.40
2018-01-16T07:25:41.572Z,0.40
2018-01-16T07:28:09.069Z,0.47
2018-01-16T07:30:36.918Z,0.40
2018-01-16T07:33:04.412Z,0.50
2018-01-16T07:35:31.927Z,0.30
2018-01-16T07:37:59.892Z,0.52
2018-01-16T07:40:27.392Z,0.40
2018-01-16T07:42:54.924Z,0.50
2018-01-16T07:45:22.448Z,0.43
2018-01-16T07:47:49.952Z,0.65
2018-01-16T07:50:17.483Z,0.40
2018-01-16T07:52:45.017Z,0.40
2018-01-16T07:55:12.513Z,0.40
2018-01-16T07:57:40.024Z,0.40
2018-01-16T08:00:07.569Z,0.40
2018-01-16T08:02:35.073Z,0.30
2018-01-16T08:05:02.587Z,0.30
2018-01-16T08:07:30.200Z,0.40
2018-01-16T08:09:57.693Z,0.35
2018-01-16T08:12:25.212Z,1.30
2018-01-16T08:14:52.767Z,0.30
2018-01-16T08:17:20.264Z,0.40
2018-01-16T08:19:47.782Z,0.40
2018-01-16T08:22:15.446Z,0.30
2018-01-16T08:24:42.945Z,0.40
2018-01-16T08:27:10.459Z,0.30
2018-01-16T08:29:38.024Z,0.30
2018-01-16T08:32:05.520Z,0.30
2018-01-16T08:34:33.040Z,0.30
2018-01-16T08:37:00.708Z,0.40
2018-01-16T08:39:28.220Z,0.40
2018-01-16T08:41:55.731Z,0.30
2018-01-16T08:44:23.475Z,0.30
2018-01-16T08:46:50.968Z,0.70
2018-01-16T08:49:18.481Z,0.50
2018-01-16T08:51:46.006Z,0.40
2018-01-16T08:54:13.509Z,0.40
2018-01-16T08:56:41.065Z,0.60
2018-01-16T08:59:08.835Z,0.40
2018-01-16T09:01:36.349Z,0.50
2018-01-16T09:04:03.856Z,0.50
2018-01-16T09:06:31.405Z,0.65
2018-01-16T09:08:58.904Z,0.40
2018-01-16T09:11:26.421Z,0.60
2018-01-16T09:13:53.980Z,0.50
2018-01-16T09:16:22.184Z,0.40
2018-01-16T09:18:49.886Z,0.47
2018-01-16T09:21:17.381Z,0.50
2018-01-16T09:23:44.935Z,0.30
2018-01-16T09:26:12.492Z,0.40
2018-01-16T09:28:39.991Z,0.40
2018-01-16T09:31:07.636Z,0.50
2018-01-16T09:33:35.157Z,0.40
2018-01-16T09:36:02.654Z,0.40
2018-01-16T09:38:30.598Z,0.45
2018-01-16T09:40:58.209Z,0.60
2018-01-16T09:43:25.765Z,0.40
2018-01-16T09:45:53.269Z,0.50
2018-01-16T09:48:20.776Z,0.50
2018-01-16T09:50:48.309Z,0.55
2018-01-16T09:53:15.847Z,0.30
2018-01-16T09:55:43.677Z,0.70
2018-01-16T09:58:11.196Z,0.43
2018-01-16T10:00:38.733Z,0.30
2018-01-16T10:03:06.288Z,0.50
2018-01-16T10:05:33.796Z,0.40
2018-01-16T10:08:01.337Z,0.70
2018-01-16T10:10:28.832Z,0.50
2018-01-16T10:12:56.328Z,0.40
2018-01-16T10:15:23.892Z,0.40
2018-01-16T10:17:51.439Z,0.40
2018-01-16T10:20:19.004Z,0.40
2018-01-16T10:22:46.500Z,0.47
2018-01-16T10:25:14.014Z,0.47
2018-01-16T10:27:41.578Z,0.82
2018-01-16T10:30:09.090Z,0.43
2018-01-16T10:32:36.775Z,0.60
2018-01-16T10:35:04.756Z,0.43
2018-01-16T10:37:32.248Z,0.57
2018-01-16T10:39:59.773Z,0.40
2018-01-16T10:42:27.268Z,0.65
2018-01-16T10:44:54.895Z,0.50
2018-01-16T10:47:22.393Z,0.50
2018-01-16T10:49:49.913Z,0.82
2018-01-16T10:52:17.471Z,0.55
2018-01-16T10:54:44.972Z,0.50
2018-01-16T10:57:12.697Z,0.52
2018-01-16T10:59:40.200Z,0.45
2018-01-16T11:02:07.708Z,0.60
2018-01-16T11:04:35.265Z,0.50
2018-01-16T11:07:02.774Z,0.40
2018-01-16T11:09:30.335Z,1.80
2018-01-16T11:11:57.829Z,0.40
2018-01-16T11:14:25.328Z,0.37
2018-01-16T11:16:52.858Z,0.55
2018-01-16T11:19:20.429Z,0.40
2018-01-16T11:21:48.192Z,0.40
2018-01-16T11:24:15.756Z,0.70
2018-01-16T11:26:43.297Z,0.40
2018-01-16T11:29:10.870Z,0.40
2018-01-16T11:31:38.366Z,0.30
2018-01-16T11:34:06.077Z,0.50
2018-01-16T11:36:33.684Z,0.40
2018-01-16T11:39:01.185Z,0.40
2018-01-16T11:41:28.770Z,0.57
2018-01-16T11:43:56.335Z,0.60
2018-01-16T11:46:24.181Z,0.68
2018-01-16T11:48:52.663Z,0.40
2018-01-16T11:51:20.164Z,0.50
2018-01-16T11:53:47.689Z,0.60
2018-01-16T11:56:15.239Z,1.00
2018-01-16T11:58:42.795Z,0.50
2018-01-16T12:01:10.289Z,0.40
2018-01-16T12:03:37.813Z,0.45
2018-01-16T12:06:05.378Z,0.50
2018-01-16T12:08:32.882Z,0.40
2018-01-16T12:11:00.612Z,0.40
2018-01-16T12:13:28.122Z,0.50
2018-01-16T12:15:55.621Z,0.50
2018-01-16T12:18:23.149Z,0.60
2018-01-16T12:20:50.655Z,0.80
2018-01-16T12:23:18.490Z,1.12
2018-01-16T12:25:45.990Z,0.40
2018-01-16T12:28:13.505Z,0.40
2018-01-16T12:30:41.066Z,0.57
2018-01-16T12:33:08.569Z,0.40
2018-01-16T12:35:36.101Z,0.30
2018-01-16T12:38:03.640Z,0.40
2018-01-16T12:40:31.200Z,0.50
2018-01-16T12:42:58.724Z,0.35
2018-01-16T12:45:26.224Z,0.60
2018-01-16T12:47:53.978Z,0.50
2018-01-16T12:50:21.481Z,0.37
2018-01-16T12:52:48.994Z,0.40
2018-01-16T12:55:16.544Z,0.40
2018-01-16T12:57:44.036Z,0.47
2018-01-16T13:00:11.625Z,0.80
2018-01-16T13:02:39.142Z,0.50
2018-01-16T13:05:06.691Z,1.02
2018-01-16T13:07:34.208Z,0.50
2018-01-16T13:10:01.704Z,1.20
2018-01-16T13:12:29.265Z,0.40
2018-01-16T13:14:56.773Z,0.50
2018-01-16T13:17:24.268Z,0.50
2018-01-16T13:19:51.793Z,0.60
2018-01-16T13:22:19.300Z,0.75
2018-01-16T13:24:46.853Z,0.52
2018-01-16T13:27:14.348Z,0.40
2018-01-16T13:29:41.851Z,0.60
2018-01-16T13:32:09.393Z,0.40
2018-01-16T13:34:36.897Z,1.02
2018-01-16T13:37:04.648Z,0.70
2018-01-16T13:39:32.146Z,0.60
2018-01-16T13:41:59.665Z,0.65
2018-01-16T13:44:27.188Z,0.70
2018-01-16T13:46:54.689Z,0.70
2018-01-16T13:49:22.550Z,0.80
2018-01-16T13:51:50.049Z,0.75
2018-01-16T13:54:17.562Z,0.52
2018-01-16T13:56:45.122Z,0.47
2018-01-16T13:59:12.621Z,0.70
2018-01-16T14:01:40.289Z,0.77
2018-01-16T14:04:07.785Z,0.40
2018-01-16T14:06:35.281Z,0.60
2018-01-16T14:09:02.806Z,0.80
2018-01-16T14:11:30.316Z,0.85
2018-01-16T14:13:57.860Z,0.50
2018-01-16T14:16:25.390Z,0.52
2018-01-16T14:18:52.890Z,0.60
2018-01-16T14:21:20.446Z,0.60
2018-01-16T14:23:47.965Z,0.60
2018-01-16T14:26:15.865Z,0.40
2018-01-16T14:28:43.363Z,0.60
2018-01-16T14:31:10.863Z,1.05
2018-01-16T14:33:38.392Z,1.00
2018-01-16T14:36:05.894Z,0.70
2018-01-16T14:38:33.420Z,0.70
2018-01-16T14:41:00.986Z,0.82
2018-01-16T14:43:28.541Z,0.90
2018-01-16T14:45:56.100Z,1.12
2018-01-16T14:48:23.618Z,0.90
2018-01-16T14:50:51.396Z,0.40
2018-01-16T14:53:18.900Z,0.93
2018-01-16T14:55:46.404Z,0.60
2018-01-16T14:58:14.408Z,0.50
2018-01-16T15:00:41.908Z,0.52
2018-01-16T15:03:10.038Z,0.40
2018-01-16T15:05:37.586Z,0.47
2018-01-16T15:08:05.081Z,0.60
2018-01-16T15:10:32.611Z,0.50
2018-01-16T15:13:00.105Z,0.50
2018-01-16T15:15:27.804Z,0.65
2018-01-16T15:17:55.300Z,0.70
2018-01-16T15:20:22.796Z,0.82
2018-01-16T15:22:50.320Z,0.70
2018-01-16T15:25:17.882Z,0.62
2018-01-16T15:27:45.467Z,0.77
2018-01-16T15:30:12.973Z,0.90
2018-01-16T15:32:40.606Z,0.70
2018-01-16T15:35:08.149Z,0.50
2018-01-16T15:37:35.687Z,0.80
2018-01-16T15:40:03.328Z,0.60
2018-01-16T15:42:30.824Z,1.08
2018-01-16T15:44:58.325Z,0.50
2018-01-16T15:47:25.849Z,0.60
2018-01-16T15:49:53.352Z,0.65
2018-01-16T15:52:20.878Z,0.50
2018-01-16T15:54:48.385Z,0.70
2018-01-16T15:57:15.906Z,0.50
2018-01-16T15:59:43.423Z,1.00
2018-01-16T16:02:10.965Z,0.75
2018-01-16T16:04:38.680Z,0.98
2018-01-16T16:07:06.274Z,0.70
2018-01-16T16:09:33.992Z,0.52
2018-01-16T16:12:02.204Z,0.50
2018-01-16T16:14:29.869Z,0.60
2018-01-16T16:16:57.628Z,0.80
2018-01-16T16:19:25.216Z,0.45
2018-01-16T16:21:52.781Z,0.40
2018-01-16T16:24:20.386Z,0.70
2018-01-16T16:26:47.901Z,0.60
2018-01-16T16:29:15.874Z,1.17
2018-01-16T16:31:43.601Z,1.23
2018-01-16T16:34:11.269Z,0.70
2018-01-16T16:36:38.924Z,1.12
2018-01-16T16:39:06.537Z,1.27
2018-01-16T16:41:34.247Z,1.10
2018-01-16T16:44:01.858Z,0.85
2018-01-16T16:46:30.413Z,0.50
2018-01-16T16:48:57.969Z,0.90
2018-01-16T16:51:25.609Z,0.65
2018-01-16T16:53:53.378Z,1.00
2018-01-16T16:56:20.931Z,1.15
2018-01-16T16:58:48.648Z,0.77
2018-01-16T17:01:16.358Z,0.80
2018-01-16T17:03:43.935Z,0.93
2018-01-16T17:06:11.475Z,1.02
2018-01-16T17:08:39.005Z,1.00
2018-01-16T17:11:06.800Z,1.70
2018-01-16T17:13:34.420Z,1.45
2018-01-16T17:16:02.589Z,0.85
2018-01-16T17:18:30.296Z,1.98
2018-01-16T17:20:57.856Z,1.20
2018-01-16T17:23:25.623Z,1.08
2018-01-16T17:25:53.365Z,1.15
2018-01-16T17:28:20.952Z,1.15
2018-01-16T17:30:48.720Z,0.93
2018-01-16T17:33:16.266Z,1.55
2018-01-16T17:35:44.055Z,1.00
2018-01-16T17:38:12.533Z,1.35
2018-01-16T17:40:40.029Z,1.33
2018-01-16T17:43:07.554Z,1.30
2018-01-16T17:45:35.061Z,0.95
2018-01-16T17:48:02.610Z,1.23
2018-01-16T17:50:30.110Z,0.98
2018-01-16T17:52:57.763Z,0.62
2018-01-16T17:55:25.294Z,0.73
2018-01-16T17:57:52.822Z,0.75
2018-01-16T18:00:21.679Z,0.75
2018-01-16T18:02:49.252Z,1.25
2018-01-16T18:05:16.845Z,1.00
2018-01-16T18:07:44.654Z,1.45
2018-01-16T18:10:12.725Z,7.57
2018-01-16T18:12:40.617Z,5.05
2018-01-16T18:15:08.458Z,2.90
2018-01-16T18:17:36.243Z,2.30
2018-01-16T18:20:04.218Z,2.05
2018-01-16T18:22:32.174Z,1.95
2018-01-16T18:25:01.183Z,1.80
2018-01-16T18:27:29.121Z,1.50
2018-01-16T18:29:56.898Z,1.50
2018-01-16T18:32:24.580Z,1.73
2018-01-16T18:34:52.412Z,1.62
2018-01-16T18:37:20.490Z,0.73
2018-01-16T18:39:48.371Z,3.22
2018-01-16T18:42:16.871Z,1.73
2018-01-16T18:44:44.711Z,1.70
2018-01-16T18:47:12.564Z,2.92
2018-01-16T18:49:40.633Z,1.25
2018-01-16T18:52:08.426Z,1.35
2018-01-16T18:54:36.163Z,1.20
2018-01-16T18:57:03.875Z,1.00
2018-01-16T18:59:32.306Z,0.80
2018-01-16T19:02:00.491Z,0.90
2018-01-16T19:04:28.325Z,0.80
2018-01-16T19:06:56.137Z,1.10
2018-01-16T19:09:24.079Z,0.70
2018-01-16T19:11:51.841Z,1.05
2018-01-16T19:14:19.608Z,1.55
2018-01-16T19:16:47.267Z,1.00
2018-01-16T19:19:14.890Z,1.35
2018-01-16T19:21:43.019Z,1.80
2018-01-16T19:24:10.762Z,7.05
2018-01-16T19:26:38.650Z,7.15
2018-01-16T19:29:06.413Z,5.60
2018-01-16T19:31:34.531Z,7.65
2018-01-16T19:34:02.322Z,6.53
2018-01-16T19:36:30.096Z,12.70
2018-01-16T19:38:58.781Z,1.33
2018-01-16T19:41:27.568Z,3.85
2018-01-16T19:43:56.362Z,2.90
2018-01-16T19:46:24.649Z,3.85
2018-01-16T19:48:52.596Z,14.45
2018-01-16T19:51:20.988Z,3.05
2018-01-16T19:53:48.960Z,1.65
2018-01-16T19:56:16.704Z,1.30
2018-01-16T19:58:46.730Z,1.37
2018-01-16T20:01:14.605Z,1.40
2018-01-16T20:03:42.462Z,1.35
2018-01-16T20:06:12.287Z,3.05
2018-01-16T20:08:40.147Z,1.15
2018-01-16T20:11:08.832Z,0.77
2018-01-16T20:13:36.795Z,0.60
2018-01-16T20:16:04.626Z,0.80
2018-01-16T20:18:32.427Z,0.85
2018-01-16T20:21:00.304Z,1.42
2018-01-16T20:23:28.569Z,1.27
2018-01-16T20:25:56.345Z,1.15
2018-01-16T20:28:24.198Z,2.45
2018-01-16T20:30:52.825Z,1.65
2018-01-16T20:33:20.652Z,1.60
2018-01-16T20:35:48.515Z,1.80
2018-01-16T20:38:16.307Z,2.15
2018-01-16T20:40:44.146Z,1.00
2018-01-16T20:43:12.029Z,2.67
2018-01-16T20:45:40.708Z,1.92
2018-01-16T20:48:08.672Z,1.48
2018-01-16T20:50:36.436Z,2.28
2018-01-16T20:53:04.193Z,1.35
2018-01-16T20:55:33.163Z,0.60
2018-01-16T20:58:00.876Z,1.20
2018-01-16T21:00:28.728Z,0.50
2018-01-16T21:02:56.478Z,0.70
2018-01-16T21:05:24.139Z,0.80
2018-01-16T21:07:52.007Z,0.60
2018-01-16T21:10:20.084Z,1.17
2018-01-16T21:12:47.947Z,0.85
2018-01-16T21:15:15.719Z,0.80
2018-01-16T21:17:43.470Z,1.08
2018-01-16T21:20:11.337Z,0.90
2018-01-16T21:22:39.082Z,1.08
2018-01-16T21:25:06.971Z,2.05
2018-01-16T21:27:34.732Z,1.50
2018-01-16T21:30:02.518Z,0.68
2018-01-16T21:32:30.363Z,1.33
2018-01-16T21:34:57.975Z,1.50
2018-01-16T21:37:25.547Z,1.12
2018-01-16T21:39:53.452Z,1.30
2018-01-16T21:42:21.113Z,1.00
2018-01-16T21:44:49.183Z,1.45
2018-01-16T21:47:16.773Z,1.40
2018-01-16T21:49:45.998Z,1.05
2018-01-16T21:52:13.794Z,1.20
2018-01-16T21:54:41.572Z,1.02
2018-01-16T21:57:09.248Z,1.20
2018-01-16T21:59:36.995Z,1.10
2018-01-16T22:02:05.475Z,0.90
2018-01-16T22:04:33.037Z,1.10
2018-01-16T22:07:00.542Z,0.90
2018-01-16T22:09:28.117Z,1.12
2018-01-16T22:11:55.816Z,1.15
2018-01-16T22:14:23.599Z,1.55
2018-01-16T22:16:51.325Z,1.73
2018-01-16T22:19:18.907Z,1.60
2018-01-16T22:21:46.873Z,1.50
2018-01-16T22:24:14.635Z,1.30
2018-01-16T22:26:42.232Z,0.95
2018-01-16T22:29:09.745Z,1.33
2018-01-16T22:31:38.234Z,0.50
2018-01-16T22:34:07.740Z,1.23
2018-01-16T22:36:35.278Z,1.00
2018-01-16T22:39:02.865Z,0.80
2018-01-16T22:41:30.397Z,0.50
2018-01-16T22:43:57.994Z,0.50
2018-01-16T22:46:25.646Z,0.70
2018-01-16T22:48:53.535Z,0.90
2018-01-16T22:51:21.405Z,0.88
2018-01-16T22:53:49.160Z,0.80
2018-01-16T22:56:17.017Z,0.90
2018-01-16T22:58:44.677Z,0.65
2018-01-16T23:01:12.574Z,0.80
2018-01-16T23:03:40.404Z,0.77
2018-01-16T23:06:08.180Z,0.70
2018-01-16T23:08:36.566Z,0.75
2018-01-16T23:11:04.529Z,0.70
2018-01-16T23:13:32.484Z,0.73
2018-01-16T23:16:00.250Z,0.70
2018-01-16T23:18:28.036Z,0.60
2018-01-16T23:20:55.825Z,0.50
2018-01-16T23:23:23.544Z,0.50
2018-01-16T23:25:51.472Z,0.45
2018-01-16T23:28:19.375Z,0.65
2018-01-16T23:30:47.241Z,0.88
2018-01-16T23:33:14.901Z,0.80
2018-01-16T23:35:42.668Z,0.57
2018-01-16T23:38:10.431Z,0.60
2018-01-16T23:40:38.298Z,0.40
2018-01-16T23:43:05.963Z,0.47
2018-01-16T23:45:34.030Z,0.40
2018-01-16T23:48:01.694Z,0.70
2018-01-16T23:50:29.455Z,0.40
2018-01-16T23:52:57.266Z,0.52
2018-01-16T23:55:24.988Z,0.40
2018-01-16T23:57:52.748Z,0.52
